Evansville Regional Airport
KEVV : now visible

Airfield :











YOU CAN JOIN US ON...

 
LOGIN :

Register | Disclaimer

   EN    FR    IT 

 









Legend :    VFR   Marginal VFR   IFR   Intensive IFR   Very Intensive IFR
Visi :
Ceiling :
>= 8 km
>= 3000ft
5 to 8 km
1000 to 3000 ft
1500m to 5 km
500 to 1000 ft
800 to 1500m
200 to 500 ft
< 800m
< 200 ft
Symbols :   Thunderstorms  Fog  Heavy snow  Heavy precipitations  Wind > 20 kt






- Airport Elevation : 418 ft
- IATA code : EVV


KEVV - Evansville Regional

CURRENT METAR :
  • 211654Z VRB03KT 10SM CLR 22/11 A3037 RMK AO2 SLP282 T02220106

EXPIRED METARs :
  • 211554Z 19007KT 10SM CLR 21/10 A3039 RMK AO2 SLP288 T02060100
  • 211454Z 21007KT 10SM CLR 19/10 A3039 RMK AO2 SLP290 T01890100 51009

TAF KEVV
Valid from the 21 at 18:00 until the 22 at 18:00 UTC


211720Z 2118/2218 19007KT P6SM FEW050 FEW250
FM212100 VRB03KT P6SM FEW250
FM221100 VRB04KT P6SM FEW050 SCT250
KZID FIR / North America



MET'MAP, your aeronautical weather chart ! - Copyright ORBIFLY December 2007 - Disclaimer

ORBIFLY MET'MAP TEAM :

Programming & Development : Alexandra Zaïnal
Concept & original design : Baudouin d'Aumeries
Assistance for programming : Marc-Olivier Méhu
Technical & hardware support : Manuel Goepfert

Contact : metmap@orbifly.com




SOURCES & CREDITS :

   NOAA       Earth
Advisory